Time;durP1;ratioP1;P1;durP2;ratioP2;P2;SDS_P1;SDS_P2;PMS_P1;PMS_P2;Temp;Humidity;BMP_temperature;BMP_pressure;BME280_temperature;BME280_humidity;BME280_pressure;Samples;Min_cycle;Max_cycle;Signal;HPM_P1;HPM_P2
2021/10/05 00:00:12;;;;;;;6.07;4.32;;;13.10;99.90;;;;;;5048895;28;20127;-79
2021/10/05 00:02:39;;;;;;;6.32;4.57;;;13.20;99.90;;;;;;5046957;28;20124;-77
2021/10/05 00:05:09;;;;;;;8.38;4.40;;;13.10;99.90;;;;;;5040038;28;20132;-76
2021/10/05 00:07:36;;;;;;;5.60;4.20;;;13.20;99.90;;;;;;5043463;28;20136;-79
2021/10/05 00:10:04;;;;;;;5.90;4.32;;;13.20;99.90;;;;;;5043333;28;20045;-79
2021/10/05 00:12:32;;;;;;;5.88;4.50;;;13.20;99.90;;;;;;5046056;28;20131;-79
2021/10/05 00:15:00;;;;;;;6.03;4.00;;;13.30;99.90;;;;;;5046749;28;20124;-77
2021/10/05 00:17:27;;;;;;;5.93;4.13;;;13.30;99.90;;;;;;5045046;28;20128;-78
2021/10/05 00:19:54;;;;;;;5.05;3.35;;;13.30;99.90;;;;;;5046551;28;20124;-79
2021/10/05 00:22:21;;;;;;;6.60;4.18;;;13.30;99.90;;;;;;5044429;28;20052;-79
2021/10/05 00:24:48;;;;;;;6.40;3.90;;;13.20;99.90;;;;;;5042876;28;20144;-79
2021/10/05 00:27:15;;;;;;;5.80;4.20;;;13.20;99.90;;;;;;5043853;28;20137;-77
2021/10/05 00:29:43;;;;;;;5.90;4.07;;;13.20;99.90;;;;;;5046640;28;20155;-77
2021/10/05 00:32:11;;;;;;;8.32;4.40;;;13.20;99.90;;;;;;5044780;28;20124;-77
2021/10/05 00:34:38;;;;;;;8.55;4.32;;;13.20;99.90;;;;;;5046277;28;20087;-80
2021/10/05 00:37:05;;;;;;;7.65;4.63;;;13.20;99.90;;;;;;5046116;28;20132;-79
2021/10/05 00:39:32;;;;;;;5.68;4.32;;;13.20;99.90;;;;;;5045923;28;20069;-79
2021/10/05 00:41:59;;;;;;;5.30;4.00;;;13.20;99.90;;;;;;5046215;28;20128;-79
2021/10/05 00:44:31;;;;;;;6.05;4.20;;;13.20;99.90;;;;;;5043340;28;20140;-78
2021/10/05 00:47:04;;;;;;;5.93;4.18;;;13.20;99.90;;;;;;5042620;28;20136;-79
2021/10/05 00:49:32;;;;;;;5.30;4.03;;;13.20;99.90;;;;;;5045574;28;20129;-78
2021/10/05 00:52:01;;;;;;;5.80;3.95;;;13.20;99.90;;;;;;5045811;28;20043;-77
2021/10/05 00:54:29;;;;;;;5.60;3.80;;;13.30;99.90;;;;;;5045306;28;20084;-77
2021/10/05 00:56:56;;;;;;;5.30;3.92;;;13.20;99.90;;;;;;5046050;28;20463;-78
2021/10/05 00:59:23;;;;;;;6.20;4.63;;;13.20;99.90;;;;;;5045560;28;20136;-78
2021/10/05 01:01:50;;;;;;;6.50;4.43;;;13.20;99.90;;;;;;5045732;28;20127;-78
2021/10/05 01:04:19;;;;;;;6.07;4.60;;;13.20;99.90;;;;;;5044253;28;20141;-78
2021/10/05 01:06:48;;;;;;;5.70;4.32;;;13.20;99.90;;;;;;5041555;28;20562;-76
2021/10/05 01:09:15;;;;;;;6.53;4.85;;;13.20;99.90;;;;;;5042896;28;20052;-78
2021/10/05 01:11:42;;;;;;;6.57;5.05;;;13.20;99.90;;;;;;5045672;28;20041;-77
2021/10/05 01:14:10;;;;;;;6.47;4.82;;;13.20;99.90;;;;;;5045229;28;20132;-76
2021/10/05 01:16:37;;;;;;;6.43;4.93;;;13.20;99.90;;;;;;5041984;28;20132;-77
2021/10/05 01:19:05;;;;;;;6.70;5.10;;;13.20;99.90;;;;;;5042056;28;20133;-78
2021/10/05 01:21:34;;;;;;;7.80;4.82;;;13.20;99.90;;;;;;5044870;28;20041;-76
2021/10/05 01:24:07;;;;;;;7.20;5.30;;;13.20;99.90;;;;;;5039350;28;20128;-78
2021/10/05 01:26:34;;;;;;;6.00;4.30;;;13.20;99.90;;;;;;5045307;28;20133;-78
2021/10/05 01:29:04;;;;;;;6.43;4.90;;;13.20;99.90;;;;;;5045320;28;20135;-77
2021/10/05 01:31:32;;;;;;;6.30;4.63;;;13.20;99.90;;;;;;5041988;28;20076;-76
2021/10/05 01:34:00;;;;;;;7.00;5.10;;;13.20;99.90;;;;;;5042072;28;20124;-77
2021/10/05 01:36:27;;;;;;;6.60;4.97;;;13.20;99.90;;;;;;5042766;28;20132;-77
2021/10/05 01:38:56;;;;;;;6.60;4.75;;;13.20;99.90;;;;;;5041749;28;20137;-77
2021/10/05 01:41:24;;;;;;;8.20;5.30;;;13.20;99.90;;;;;;5043493;28;20140;-76
2021/10/05 01:43:51;;;;;;;7.45;5.70;;;13.30;99.90;;;;;;5044731;28;20125;-76
2021/10/05 01:46:18;;;;;;;8.65;5.90;;;13.20;99.90;;;;;;5043516;28;20476;-76
2021/10/05 01:48:46;;;;;;;6.88;4.90;;;13.20;99.90;;;;;;5041519;28;20133;-78
2021/10/05 01:51:13;;;;;;;10.40;6.30;;;13.30;99.90;;;;;;5043235;28;20121;-77
2021/10/05 01:53:42;;;;;;;8.35;5.90;;;13.30;99.90;;;;;;5044710;28;20065;-80
2021/10/05 01:56:10;;;;;;;8.70;5.60;;;13.30;99.90;;;;;;5043573;28;20124;-77
2021/10/05 01:58:37;;;;;;;7.05;5.22;;;13.20;99.90;;;;;;5041103;28;20100;-78
2021/10/05 02:01:04;;;;;;;6.22;4.90;;;13.30;99.90;;;;;;5040285;28;20120;-77
2021/10/05 02:03:31;;;;;;;7.88;5.85;;;13.30;99.90;;;;;;5044355;28;20041;-77
2021/10/05 02:05:59;;;;;;;8.15;5.82;;;13.20;99.90;;;;;;5044780;28;20120;-79
2021/10/05 02:08:26;;;;;;;6.85;5.10;;;13.30;99.90;;;;;;5042047;28;20137;-75
2021/10/05 02:10:53;;;;;;;7.30;5.63;;;13.30;99.90;;;;;;5041122;28;20140;-77
2021/10/05 02:13:21;;;;;;;7.35;5.70;;;13.30;99.90;;;;;;5043544;28;20128;-79
2021/10/05 02:15:48;;;;;;;7.45;5.95;;;13.20;99.90;;;;;;5041055;28;20144;-78
2021/10/05 02:18:15;;;;;;;8.15;6.35;;;13.30;99.90;;;;;;5041610;28;20124;-78
2021/10/05 02:20:42;;;;;;;8.88;6.45;;;13.20;99.90;;;;;;5044401;28;20128;-79
2021/10/05 02:23:10;;;;;;;7.57;5.35;;;13.20;99.90;;;;;;5043808;28;20079;-77
2021/10/05 02:25:37;;;;;;;7.55;5.78;;;13.10;99.90;;;;;;5040644;28;20116;-79
2021/10/05 02:28:04;;;;;;;8.93;6.50;;;13.10;99.90;;;;;;5040737;28;20129;-78
2021/10/05 02:30:33;;;;;;;8.80;6.70;;;13.10;99.90;;;;;;5041396;28;20124;-79
2021/10/05 02:33:00;;;;;;;10.15;7.15;;;13.00;99.90;;;;;;5040728;28;20582;-78
2021/10/05 02:35:27;;;;;;;10.60;6.90;;;13.00;99.90;;;;;;5040868;28;20577;-79
2021/10/05 02:37:54;;;;;;;8.95;7.10;;;13.00;99.90;;;;;;5040584;28;20124;-78
2021/10/05 02:40:21;;;;;;;10.07;7.10;;;13.00;99.90;;;;;;5042403;28;20119;-79
2021/10/05 02:42:49;;;;;;;9.70;6.85;;;13.00;99.90;;;;;;5039813;28;20550;-79
2021/10/05 02:45:16;;;;;;;10.75;7.88;;;13.00;99.90;;;;;;5041217;28;20571;-79
2021/10/05 02:47:44;;;;;;;10.70;8.38;;;13.00;99.90;;;;;;5044148;28;20455;-80
2021/10/05 02:50:11;;;;;;;10.90;8.27;;;13.00;99.90;;;;;;5039201;28;20124;-79
2021/10/05 02:52:38;;;;;;;10.60;7.65;;;13.00;99.90;;;;;;5043916;28;20053;-77
2021/10/05 02:55:07;;;;;;;11.27;8.07;;;13.10;99.90;;;;;;5044325;28;20131;-77
2021/10/05 02:57:34;;;;;;;12.95;8.93;;;13.10;99.90;;;;;;5041782;28;20435;-79
2021/10/05 03:00:01;;;;;;;12.65;9.73;;;13.10;99.90;;;;;;5040508;28;20132;-79
2021/10/05 03:02:29;;;;;;;11.38;8.32;;;13.10;99.90;;;;;;5040157;28;20144;-76
2021/10/05 03:04:57;;;;;;;13.82;9.70;;;13.00;99.90;;;;;;5037820;28;20046;-77
2021/10/05 03:07:24;;;;;;;13.43;9.65;;;13.00;99.90;;;;;;5039751;28;20128;-77
2021/10/05 03:09:51;;;;;;;12.27;8.55;;;13.00;99.90;;;;;;5040764;28;20479;-78
2021/10/05 03:12:18;;;;;;;12.02;9.00;;;12.90;99.90;;;;;;5038388;28;20455;-79
2021/10/05 03:14:45;;;;;;;12.13;9.45;;;12.90;99.90;;;;;;5040408;28;20127;-79
2021/10/05 03:17:12;;;;;;;12.05;8.40;;;12.90;99.90;;;;;;5039786;28;20124;-78
2021/10/05 03:19:39;;;;;;;11.50;7.82;;;12.80;99.90;;;;;;5037009;28;20041;-78
2021/10/05 03:22:08;;;;;;;10.73;7.55;;;12.80;99.90;;;;;;5037420;28;20045;-78
2021/10/05 03:24:35;;;;;;;11.10;8.15;;;12.80;99.90;;;;;;5036833;28;20048;-78
2021/10/05 03:27:02;;;;;;;11.75;8.48;;;12.80;99.90;;;;;;5036536;28;20046;-78
2021/10/05 03:29:30;;;;;;;11.90;8.40;;;12.80;99.90;;;;;;5041979;28;20048;-77
2021/10/05 03:31:57;;;;;;;11.25;7.88;;;12.80;99.90;;;;;;5043905;28;20127;-78
2021/10/05 03:34:24;;;;;;;10.75;7.78;;;12.80;99.90;;;;;;5043159;28;20064;-77
2021/10/05 03:36:51;;;;;;;11.80;7.80;;;12.80;99.90;;;;;;5044264;28;20049;-79
2021/10/05 03:39:20;;;;;;;11.05;7.82;;;12.90;99.90;;;;;;5042151;28;20135;-79
2021/10/05 03:41:47;;;;;;;10.55;7.55;;;12.90;99.90;;;;;;5040484;28;20052;-80
2021/10/05 03:44:14;;;;;;;11.27;7.60;;;13.00;99.90;;;;;;5040958;28;20053;-80
2021/10/05 03:46:41;;;;;;;12.05;7.65;;;13.00;99.90;;;;;;5043897;28;20463;-79
2021/10/05 03:49:08;;;;;;;11.65;8.13;;;13.00;99.90;;;;;;5044019;28;20123;-79
2021/10/05 03:51:35;;;;;;;11.50;8.35;;;13.00;99.90;;;;;;5040190;28;20128;-80
2021/10/05 03:54:02;;;;;;;10.57;7.85;;;13.00;99.90;;;;;;5039998;28;20136;-80
2021/10/05 03:56:31;;;;;;;10.38;7.65;;;13.00;99.90;;;;;;5042326;28;20132;-79
2021/10/05 03:59:00;;;;;;;10.48;7.88;;;12.90;99.90;;;;;;5043698;28;20188;-81
2021/10/05 04:01:27;;;;;;;9.15;7.25;;;12.90;99.90;;;;;;5044663;28;20045;-81
2021/10/05 04:03:54;;;;;;;10.75;7.70;;;12.90;99.90;;;;;;5046905;28;20473;-79
2021/10/05 04:06:21;;;;;;;10.00;7.25;;;12.90;99.90;;;;;;5038936;28;20080;-80
2021/10/05 04:08:48;;;;;;;10.65;7.43;;;12.90;99.90;;;;;;5046671;28;20044;-79
2021/10/05 04:11:15;;;;;;;11.15;7.40;;;12.80;99.90;;;;;;5045702;28;20135;-78
2021/10/05 04:13:44;;;;;;;11.63;8.30;;;12.80;99.90;;;;;;5043310;28;20128;-79
2021/10/05 04:16:11;;;;;;;12.35;8.75;;;12.80;99.90;;;;;;5040290;28;20037;-80
2021/10/05 04:18:38;;;;;;;12.52;8.70;;;12.80;99.90;;;;;;5043190;28;20141;-79
2021/10/05 04:21:06;;;;;;;12.43;8.77;;;12.70;99.90;;;;;;5043453;28;20128;-79
2021/10/05 04:23:33;;;;;;;11.48;7.93;;;12.70;99.90;;;;;;5048884;28;20124;-79
2021/10/05 04:26:00;;;;;;;11.85;8.38;;;12.70;99.90;;;;;;5042086;28;20131;-79
2021/10/05 04:28:27;;;;;;;11.68;7.97;;;12.70;99.90;;;;;;5039138;28;20816;-78
2021/10/05 04:30:55;;;;;;;12.65;7.93;;;12.60;99.90;;;;;;5045568;28;20128;-78
2021/10/05 04:33:22;;;;;;;13.20;8.55;;;12.60;99.90;;;;;;5055040;28;20137;-79
2021/10/05 04:35:50;;;;;;;13.20;9.15;;;12.70;99.90;;;;;;5055102;28;20140;-80
2021/10/05 04:38:17;;;;;;;14.00;9.10;;;12.70;99.90;;;;;;5054961;28;20079;-79
2021/10/05 04:40:44;;;;;;;13.52;8.90;;;12.70;99.90;;;;;;5053593;28;20131;-78
2021/10/05 04:43:11;;;;;;;13.73;9.10;;;12.70;99.90;;;;;;5054656;28;20136;-79
2021/10/05 04:45:38;;;;;;;14.07;9.60;;;12.70;99.90;;;;;;5054810;28;20160;-79
2021/10/05 04:48:10;;;;;;;14.55;10.23;;;12.80;99.90;;;;;;5054723;28;20565;-77
2021/10/05 04:50:37;;;;;;;16.27;10.15;;;12.80;99.90;;;;;;5054676;28;20132;-79
2021/10/05 04:53:04;;;;;;;16.02;10.65;;;12.80;99.90;;;;;;5054443;28;20149;-78
2021/10/05 04:55:31;;;;;;;15.77;10.77;;;12.80;99.90;;;;;;5054268;28;20045;-78
2021/10/05 04:58:01;;;;;;;16.25;11.05;;;12.80;99.90;;;;;;5054350;28;20142;-77
2021/10/05 05:00:28;;;;;;;15.48;10.75;;;12.80;99.90;;;;;;5054462;28;20139;-76
2021/10/05 05:02:55;;;;;;;15.15;10.32;;;12.80;99.90;;;;;;5054566;28;20076;-79
2021/10/05 05:05:24;;;;;;;15.50;10.13;;;12.70;99.90;;;;;;5054298;28;20128;-77
2021/10/05 05:07:51;;;;;;;15.13;10.07;;;12.70;99.90;;;;;;5054770;28;20140;-78
2021/10/05 05:10:18;;;;;;;16.40;11.25;;;12.70;99.90;;;;;;5054271;28;20509;-78
2021/10/05 05:12:45;;;;;;;16.90;10.80;;;12.70;99.90;;;;;;5054408;28;20136;-78
2021/10/05 05:15:13;;;;;;;16.00;10.38;;;12.70;99.90;;;;;;5054424;28;20133;-77
2021/10/05 05:17:40;;;;;;;15.27;10.70;;;12.70;99.90;;;;;;5054209;28;20410;-79
2021/10/05 05:20:09;;;;;;;15.60;10.43;;;12.70;99.90;;;;;;5054102;28;20135;-79
2021/10/05 05:22:37;;;;;;;13.77;9.35;;;12.70;99.90;;;;;;5053892;28;20550;-78
2021/10/05 05:25:06;;;;;;;15.77;10.57;;;12.70;99.90;;;;;;5053894;28;20479;-79
2021/10/05 05:27:33;;;;;;;18.02;11.00;;;12.70;99.90;;;;;;5054118;28;20132;-79
2021/10/05 05:30:01;;;;;;;16.52;10.70;;;12.70;99.90;;;;;;5053925;28;20124;-78
2021/10/05 05:32:28;;;;;;;15.38;9.80;;;12.70;99.90;;;;;;5053995;28;20077;-79
2021/10/05 05:34:55;;;;;;;14.82;9.98;;;12.70;99.90;;;;;;5054093;28;20124;-77
2021/10/05 05:37:22;;;;;;;16.10;10.10;;;12.70;99.90;;;;;;5053651;28;20569;-77
2021/10/05 05:39:50;;;;;;;14.20;9.88;;;12.80;99.90;;;;;;5053822;28;20131;-77
2021/10/05 05:42:17;;;;;;;14.77;9.88;;;12.80;99.90;;;;;;5053629;28;20131;-75
2021/10/05 05:44:45;;;;;;;15.27;9.95;;;12.80;99.90;;;;;;5052948;28;20075;-79
2021/10/05 05:47:12;;;;;;;16.75;10.50;;;12.80;99.90;;;;;;5053733;28;20077;-79
2021/10/05 05:49:39;;;;;;;14.20;9.85;;;12.80;99.90;;;;;;5053417;28;20513;-78
2021/10/05 05:52:07;;;;;;;15.65;9.85;;;12.80;99.90;;;;;;5053245;28;20495;-77
2021/10/05 05:54:34;;;;;;;13.55;9.07;;;12.80;99.90;;;;;;5053646;28;20132;-79
2021/10/05 05:57:02;;;;;;;16.77;10.57;;;12.80;99.90;;;;;;5053448;28;20092;-78
2021/10/05 05:59:29;;;;;;;16.88;10.35;;;12.80;99.90;;;;;;5053471;28;20083;-78
2021/10/05 06:01:56;;;;;;;15.15;9.98;;;12.90;99.90;;;;;;5052784;28;20127;-79
2021/10/05 06:04:23;;;;;;;15.65;9.50;;;12.80;99.90;;;;;;5053244;28;20124;-78
2021/10/05 06:06:50;;;;;;;14.65;9.50;;;12.80;99.90;;;;;;5053338;28;20127;-78
2021/10/05 06:09:17;;;;;;;13.15;8.68;;;12.80;99.90;;;;;;5054361;28;20128;-77
2021/10/05 06:11:47;;;;;;;14.63;9.65;;;12.80;99.90;;;;;;5053265;28;20072;-78
2021/10/05 06:14:16;;;;;;;15.93;10.25;;;12.80;99.90;;;;;;5053168;28;20107;-78
2021/10/05 06:16:43;;;;;;;15.52;10.02;;;12.90;99.90;;;;;;5052983;28;20088;-77
2021/10/05 06:19:10;;;;;;;16.60;9.82;;;12.90;99.90;;;;;;5053193;28;20125;-78
2021/10/05 06:21:37;;;;;;;14.27;8.98;;;12.90;99.90;;;;;;5053135;28;20383;-78
2021/10/05 06:24:05;;;;;;;13.73;8.82;;;12.80;99.90;;;;;;5053049;28;20135;-78
2021/10/05 06:26:32;;;;;;;16.50;10.55;;;12.80;99.90;;;;;;5052884;28;20049;-79
2021/10/05 06:28:59;;;;;;;16.10;10.32;;;12.80;99.90;;;;;;5052846;28;20144;-79
2021/10/05 06:31:27;;;;;;;15.05;10.18;;;12.80;99.90;;;;;;5052797;28;20461;-77
2021/10/05 06:33:54;;;;;;;15.07;10.48;;;12.80;99.90;;;;;;5052907;28;20136;-79
2021/10/05 06:36:21;;;;;;;15.85;10.20;;;12.80;99.90;;;;;;5052989;28;20128;-79
2021/10/05 06:38:48;;;;;;;16.40;10.20;;;12.80;99.90;;;;;;5053084;28;20152;-79
2021/10/05 06:41:15;;;;;;;17.55;11.40;;;12.80;99.90;;;;;;5052768;28;20144;-79
2021/10/05 06:43:42;;;;;;;16.05;10.02;;;12.80;99.90;;;;;;5052611;28;20136;-77
2021/10/05 06:46:09;;;;;;;18.23;11.20;;;12.80;99.90;;;;;;5053562;28;20140;-77
2021/10/05 06:48:38;;;;;;;15.73;9.80;;;12.80;99.90;;;;;;5052953;28;20148;-75
2021/10/05 06:51:05;;;;;;;16.88;9.90;;;12.80;99.90;;;;;;5058392;28;20045;-76
2021/10/05 06:53:33;;;;;;;16.40;9.73;;;12.80;99.90;;;;;;5056884;28;20478;-75
2021/10/05 06:56:00;;;;;;;15.60;9.75;;;12.70;99.90;;;;;;5058173;28;20061;-75
2021/10/05 06:58:28;;;;;;;16.05;9.82;;;12.70;99.90;;;;;;5059717;28;20131;-75
2021/10/05 07:00:55;;;;;;;15.40;9.55;;;12.80;99.90;;;;;;5059040;28;20045;-74
2021/10/05 07:03:22;;;;;;;14.38;8.60;;;12.70;99.90;;;;;;5059027;28;20536;-75
2021/10/05 07:05:51;;;;;;;12.05;7.45;;;12.80;99.90;;;;;;5061568;28;20085;-75
2021/10/05 07:08:19;;;;;;;12.23;7.68;;;12.80;99.90;;;;;;5059883;28;20072;-76
2021/10/05 07:10:46;;;;;;;12.05;7.25;;;12.80;99.90;;;;;;5060286;28;20127;-75
2021/10/05 07:13:13;;;;;;;11.90;7.20;;;12.90;99.90;;;;;;5060497;28;20123;-75
2021/10/05 07:15:42;;;;;;;12.02;7.57;;;12.90;99.90;;;;;;5060033;28;20510;-77
2021/10/05 07:18:09;;;;;;;11.70;7.47;;;13.00;99.90;;;;;;5060488;28;20111;-77
2021/10/05 07:20:36;;;;;;;14.25;8.60;;;13.10;99.90;;;;;;5060801;28;20056;-76
2021/10/05 07:23:05;;;;;;;12.75;8.13;;;13.10;99.90;;;;;;5060557;28;20478;-77
2021/10/05 07:25:32;;;;;;;15.38;8.95;;;13.20;99.90;;;;;;5060079;28;20099;-75
2021/10/05 07:28:00;;;;;;;13.35;8.55;;;13.20;99.90;;;;;;5060230;28;20128;-75
2021/10/05 07:30:28;;;;;;;14.10;8.60;;;13.30;99.90;;;;;;5060649;28;20132;-75
2021/10/05 07:32:58;;;;;;;14.23;9.18;;;13.30;99.90;;;;;;5060088;28;20402;-75
2021/10/05 07:35:26;;;;;;;13.02;8.48;;;13.30;99.90;;;;;;5061284;28;20088;-75
2021/10/05 07:37:53;;;;;;;12.27;7.93;;;13.40;99.90;;;;;;5061102;28;20071;-75
2021/10/05 07:40:22;;;;;;;12.57;8.18;;;13.40;99.90;;;;;;5060935;28;20045;-74
2021/10/05 07:42:51;;;;;;;12.40;7.93;;;13.50;99.90;;;;;;5061232;28;20072;-75
2021/10/05 07:45:19;;;;;;;10.82;7.70;;;13.50;99.90;;;;;;5060757;28;20079;-76
2021/10/05 07:47:46;;;;;;;11.02;6.78;;;13.50;99.90;;;;;;5060858;28;20099;-74
2021/10/05 07:50:13;;;;;;;11.27;6.97;;;13.60;99.90;;;;;;5060702;28;20147;-75
2021/10/05 07:52:41;;;;;;;11.88;7.20;;;13.50;99.90;;;;;;5059926;28;20131;-75
2021/10/05 07:55:09;;;;;;;10.57;7.05;;;13.60;99.90;;;;;;5060512;28;20132;-74
2021/10/05 07:57:37;;;;;;;10.75;6.80;;;13.60;99.90;;;;;;5060502;28;20462;-76
2021/10/05 08:00:07;;;;;;;11.20;7.50;;;13.60;99.90;;;;;;5061158;28;20282;-74
2021/10/05 08:02:34;;;;;;;12.88;7.55;;;13.60;99.90;;;;;;5060888;28;20072;-75
2021/10/05 08:05:01;;;;;;;11.60;7.65;;;13.70;99.90;;;;;;5059437;28;20164;-74
2021/10/05 08:07:28;;;;;;;11.80;6.97;;;13.70;99.90;;;;;;5060094;28;20081;-75
2021/10/05 08:09:55;;;;;;;10.88;6.97;;;13.60;99.90;;;;;;5059894;28;20045;-75
2021/10/05 08:12:24;;;;;;;9.55;6.53;;;13.70;99.90;;;;;;5060081;28;20095;-75
2021/10/05 08:14:53;;;;;;;10.43;6.65;;;13.70;99.90;;;;;;5058892;28;20080;-75
2021/10/05 08:17:20;;;;;;;10.15;6.60;;;13.70;99.90;;;;;;5057507;28;20497;-76
2021/10/05 08:19:48;;;;;;;11.98;7.25;;;13.80;99.90;;;;;;5055489;28;20581;-79
2021/10/05 08:22:15;;;;;;;12.07;7.13;;;13.80;99.90;;;;;;5055734;28;20059;-77
2021/10/05 08:24:43;;;;;;;12.23;7.85;;;13.90;99.90;;;;;;5056532;28;20132;-76
2021/10/05 08:27:10;;;;;;;12.15;7.70;;;13.90;99.90;;;;;;5057817;28;20059;-76
2021/10/05 08:29:39;;;;;;;11.95;7.95;;;13.90;99.90;;;;;;5057322;28;20139;-77
2021/10/05 08:32:10;;;;;;;13.80;8.48;;;13.90;99.90;;;;;;5055110;28;20073;-78
2021/10/05 08:34:38;;;;;;;11.25;7.35;;;13.90;99.90;;;;;;5055680;28;20088;-77
2021/10/05 08:37:06;;;;;;;12.13;7.78;;;13.90;99.90;;;;;;5055477;28;20156;-79
2021/10/05 08:39:33;;;;;;;10.13;6.72;;;13.90;99.90;;;;;;5055029;28;20239;-77
2021/10/05 08:42:01;;;;;;;11.88;7.60;;;13.90;99.90;;;;;;5055311;28;20594;-79
2021/10/05 08:44:29;;;;;;;10.95;7.63;;;13.90;99.90;;;;;;5055256;28;20053;-76
2021/10/05 08:46:58;;;;;;;10.85;7.40;;;14.00;99.90;;;;;;5054651;28;20059;-78
2021/10/05 08:49:26;;;;;;;11.05;7.10;;;14.00;99.90;;;;;;5055104;28;20560;-79
2021/10/05 08:51:55;;;;;;;10.85;7.70;;;14.00;99.90;;;;;;5055074;28;20128;-79
2021/10/05 08:54:23;;;;;;;11.50;7.75;;;14.00;99.90;;;;;;5054884;28;20129;-79
2021/10/05 08:56:50;;;;;;;11.55;7.25;;;14.00;99.90;;;;;;5055015;28;20131;-78
2021/10/05 08:59:18;;;;;;;12.02;7.13;;;14.00;99.90;;;;;;5055173;28;20136;-75
2021/10/05 09:01:45;;;;;;;11.35;7.50;;;14.10;99.90;;;;;;5054720;28;20467;-79
2021/10/05 09:04:12;;;;;;;10.10;6.47;;;14.10;99.90;;;;;;5054586;28;20474;-79
2021/10/05 09:06:43;;;;;;;9.98;6.88;;;14.10;99.90;;;;;;5054660;28;20581;-79
2021/10/05 09:09:10;;;;;;;10.00;7.13;;;14.10;99.90;;;;;;5054913;28;20076;-78
2021/10/05 09:11:42;;;;;;;9.55;6.75;;;14.20;99.90;;;;;;5054286;28;20132;-78
2021/10/05 09:14:09;;;;;;;10.13;6.78;;;14.10;99.90;;;;;;5054258;28;20045;-79
2021/10/05 09:16:37;;;;;;;10.32;6.55;;;14.20;99.90;;;;;;5054507;28;20124;-79
2021/10/05 09:19:08;;;;;;;11.82;6.97;;;14.20;99.90;;;;;;5054828;28;20462;-79
2021/10/05 09:21:40;;;;;;;9.30;5.97;;;14.20;99.90;;;;;;5054417;28;20461;-79
2021/10/05 09:24:11;;;;;;;8.55;5.80;;;14.20;99.90;;;;;;5054734;28;20467;-78
2021/10/05 09:26:43;;;;;;;7.85;5.10;;;14.20;99.90;;;;;;5053384;28;20049;-76
2021/10/05 09:29:19;;;;;;;6.97;4.53;;;14.20;99.90;;;;;;5054538;28;20081;-77
2021/10/05 09:31:59;;;;;;;8.02;4.93;;;14.30;99.90;;;;;;5054231;28;20127;-80
2021/10/05 09:34:40;;;;;;;7.35;4.88;;;14.30;99.90;;;;;;5054336;28;20142;-82
2021/10/05 09:37:12;;;;;;;7.25;4.80;;;14.50;99.90;;;;;;5055182;28;20367;-82
2021/10/05 09:39:44;;;;;;;6.82;4.20;;;14.60;99.90;;;;;;5054895;28;20099;-82
2021/10/05 09:42:18;;;;;;;5.53;3.60;;;14.70;99.90;;;;;;5056263;28;20045;-82
2021/10/05 09:44:53;;;;;;;5.25;3.60;;;14.90;99.90;;;;;;5057063;28;20104;-83
2021/10/05 09:47:35;;;;;;;6.97;4.30;;;15.10;99.90;;;;;;5055655;28;20553;-81
2021/10/05 09:50:09;;;;;;;5.93;3.63;;;15.20;99.90;;;;;;5055281;28;20136;-84
2021/10/05 09:52:44;;;;;;;5.20;3.70;;;15.30;99.90;;;;;;5054774;28;20518;-84
2021/10/05 09:55:12;;;;;;;5.57;2.95;;;15.40;99.90;;;;;;5054734;28;20575;-81
2021/10/05 09:57:39;;;;;;;5.45;3.20;;;15.40;99.90;;;;;;5055169;28;20072;-83
2021/10/05 10:00:09;;;;;;;4.65;2.92;;;15.40;99.90;;;;;;5054480;28;20133;-82
2021/10/05 10:02:38;;;;;;;4.18;2.70;;;15.40;99.90;;;;;;5054529;28;20196;-83
2021/10/05 10:05:08;;;;;;;3.65;2.13;;;15.40;99.90;;;;;;5054142;28;20049;-83
2021/10/05 10:07:38;;;;;;;3.75;2.13;;;15.40;99.90;;;;;;5043406;28;20168;-83
2021/10/05 10:10:11;;;;;;;4.82;2.80;;;15.50;99.90;;;;;;5032868;28;20109;-83
2021/10/05 10:12:40;;;;;;;4.88;2.83;;;15.60;99.90;;;;;;5032263;28;20045;-82
2021/10/05 10:15:11;;;;;;;3.40;2.00;;;15.70;99.90;;;;;;5031025;28;20057;-83
2021/10/05 10:17:38;;;;;;;3.25;1.75;;;15.80;99.90;;;;;;5030926;28;20060;-84
2021/10/05 10:20:09;;;;;;;2.92;1.60;;;15.90;99.90;;;;;;5031543;28;20132;-85
2021/10/05 10:22:44;;;;;;;3.55;1.85;;;16.00;99.90;;;;;;5032032;28;20049;-82
2021/10/05 10:25:23;;;;;;;3.50;1.70;;;16.20;99.90;;;;;;5032328;28;20144;-82
2021/10/05 10:27:56;;;;;;;3.85;1.90;;;16.20;99.90;;;;;;5031660;28;20049;-82
2021/10/05 10:30:24;;;;;;;3.38;1.88;;;16.40;99.90;;;;;;5031260;28;20049;-82
2021/10/05 10:32:55;;;;;;;2.97;1.80;;;16.40;99.90;;;;;;5031188;28;20400;-82
2021/10/05 10:35:22;;;;;;;3.38;1.80;;;16.40;99.90;;;;;;5031251;28;20102;-83
2021/10/05 10:37:52;;;;;;;3.55;1.80;;;16.40;99.90;;;;;;5031436;28;20139;-82
2021/10/05 10:40:35;;;;;;;4.53;1.70;;;16.50;99.90;;;;;;5031408;28;20132;-79
2021/10/05 10:43:14;;;;;;;3.42;1.63;;;16.60;99.90;;;;;;5034746;28;20045;-80
2021/10/05 10:45:46;;;;;;;3.10;1.80;;;16.60;99.90;;;;;;5052030;28;20642;-79
2021/10/05 10:48:15;;;;;;;3.35;1.67;;;16.70;99.90;;;;;;5069793;28;20060;-80
2021/10/05 10:50:42;;;;;;;3.35;1.70;;;16.70;99.90;;;;;;5050104;28;20145;-79
2021/10/05 10:53:09;;;;;;;3.80;1.88;;;16.80;99.90;;;;;;5049906;28;20133;-79
2021/10/05 10:55:38;;;;;;;2.95;1.30;;;16.80;99.90;;;;;;5049168;28;20128;-79
2021/10/05 10:58:08;;;;;;;3.25;1.60;;;16.80;99.90;;;;;;5047877;28;20509;-81
2021/10/05 11:00:36;;;;;;;2.72;1.55;;;16.90;99.90;;;;;;5049853;28;20083;-79
2021/10/05 11:03:05;;;;;;;3.08;1.50;;;16.90;99.90;;;;;;5031673;28;20582;-81
2021/10/05 11:05:37;;;;;;;4.00;1.60;;;16.90;99.90;;;;;;5050900;28;20494;-80
2021/10/05 11:08:12;;;;;;;2.90;1.55;;;16.80;99.60;;;;;;5054939;28;20489;-78
2021/10/05 11:10:42;;;;;;;3.53;1.80;;;16.80;99.90;;;;;;5045434;28;20136;-79
2021/10/05 11:13:10;;;;;;;2.60;1.23;;;16.80;99.90;;;;;;5042839;28;20124;-83
2021/10/05 11:15:39;;;;;;;2.42;1.20;;;16.70;99.70;;;;;;5030880;28;20225;-83
2021/10/05 11:18:10;;;;;;;2.05;1.00;;;16.70;99.40;;;;;;5045414;28;20051;-81
2021/10/05 11:20:41;;;;;;;2.45;1.25;;;16.70;99.60;;;;;;5050115;28;20136;-83
2021/10/05 11:23:08;;;;;;;2.70;1.23;;;16.70;99.60;;;;;;5045664;28;20055;-84
2021/10/05 11:25:35;;;;;;;2.88;1.30;;;16.70;99.40;;;;;;5049707;28;20534;-84
2021/10/05 11:28:13;;;;;;;3.50;1.30;;;16.60;99.40;;;;;;5050528;28;20147;-85
2021/10/05 11:30:54;;;;;;;2.60;1.20;;;16.50;99.60;;;;;;5049617;28;20073;-85
2021/10/05 11:33:25;;;;;;;3.65;1.08;;;16.50;99.90;;;;;;5034405;28;20132;-84
2021/10/05 11:35:53;;;;;;;3.08;1.10;;;16.50;99.90;;;;;;5049329;28;20045;-85
2021/10/05 11:38:20;;;;;;;2.10;1.05;;;16.40;99.90;;;;;;5051471;28;20095;-86
2021/10/05 11:40:57;;;;;;;2.30;1.20;;;16.50;99.90;;;;;;5051120;28;20129;-86
2021/10/05 11:43:38;;;;;;;2.05;1.00;;;16.40;99.70;;;;;;5041458;28;20053;-84
2021/10/05 11:46:12;;;;;;;2.80;1.23;;;16.40;99.80;;;;;;5050285;28;20595;-85
2021/10/05 11:48:44;;;;;;;2.30;1.05;;;16.40;99.80;;;;;;5051316;28;20049;-85
2021/10/05 11:51:13;;;;;;;2.70;1.38;;;16.30;99.80;;;;;;5054115;28;20136;-85
2021/10/05 11:53:41;;;;;;;2.97;1.00;;;16.20;99.60;;;;;;5037201;28;20310;-86
2021/10/05 11:56:11;;;;;;;2.72;1.10;;;16.10;99.90;;;;;;5035861;28;20053;-87
2021/10/05 11:58:49;;;;;;;1.85;0.90;;;16.00;99.90;;;;;;5045230;28;20055;-80
2021/10/05 12:01:22;;;;;;;2.17;1.00;;;16.00;99.90;;;;;;5042525;28;20046;-81
2021/10/05 12:03:51;;;;;;;2.70;1.05;;;16.10;99.90;;;;;;5033350;28;20115;-79
2021/10/05 12:06:32;;;;;;;2.30;1.00;;;16.10;99.90;;;;;;5033442;28;20453;-84
2021/10/05 12:09:01;;;;;;;2.60;1.10;;;16.20;99.90;;;;;;5034694;28;20136;-85
2021/10/05 12:11:40;;;;;;;2.17;1.02;;;16.30;99.90;;;;;;5035484;28;20128;-87
2021/10/05 12:14:09;;;;;;;2.95;1.10;;;16.30;99.90;;;;;;5034185;28;20128;-85
2021/10/05 12:16:37;;;;;;;3.55;1.02;;;16.30;99.90;;;;;;5033349;28;20045;-85
2021/10/05 12:19:04;;;;;;;2.28;1.10;;;16.30;99.90;;;;;;5035341;28;20136;-85
2021/10/05 12:21:31;;;;;;;2.70;1.00;;;16.30;99.90;;;;;;5041337;28;20417;-85
2021/10/05 12:24:01;;;;;;;2.45;0.90;;;16.30;99.90;;;;;;5054031;28;20061;-85
2021/10/05 12:26:28;;;;;;;2.05;0.80;;;16.40;99.90;;;;;;5038407;28;20053;-87
2021/10/05 12:29:04;;;;;;;2.17;0.98;;;16.40;99.90;;;;;;5034043;28;20129;-84
2021/10/05 12:31:34;;;;;;;2.70;1.08;;;16.40;99.90;;;;;;5034221;28;20136;-85
2021/10/05 12:34:06;;;;;;;2.75;1.20;;;16.50;99.90;;;;;;5041296;28;20124;-86
2021/10/05 12:36:38;;;;;;;2.10;0.80;;;16.50;99.90;;;;;;5053255;28;20095;-86
2021/10/05 12:39:11;;;;;;;2.83;1.10;;;16.60;99.90;;;;;;5041137;28;20069;-86
2021/10/05 12:41:39;;;;;;;3.53;1.13;;;16.60;99.80;;;;;;5039274;28;20045;-85
2021/10/05 12:44:15;;;;;;;3.92;1.40;;;16.60;99.90;;;;;;5051971;28;20076;-84
2021/10/05 12:46:53;;;;;;;2.90;1.10;;;16.60;99.80;;;;;;5055185;28;20047;-85